| time (UTC) | temp F | wind direction | speed MPH | gust MPH | rain 1hr in | rain 24hr in | rain mn in | humidity % | barometer mb |
| 20260507214517 | 41 | 11 | 2.0 | 4.0 | 0.00 | 0.00 | 0.00 | 100 | |
| 20260507214018 | 41 | 342 | 0.0 | 0.0 | 0.00 | 0.00 | 0.00 | 100 | |
| 20260507213518 | 41 | 341 | 0.0 | 2.0 | 0.00 | 0.00 | 0.00 | 100 | |
| 20260507213017 | 41 | 347 | 0.0 | 2.0 | 0.00 | 0.00 | 0.00 | 100 | |
| 20260507212519 | 41 | 350 | 2.0 | 4.0 | 0.00 | 0.00 | 0.00 | 100 | |
| 20260507212020 | 41 | 12 | 0.0 | 4.0 | 0.00 | 0.00 | 0.00 | 100 | |
| 20260507211517 | 41 | 45 | 2.0 | 4.0 | 0.00 | 0.00 | 0.00 | 100 | |
| 20260507210517 | 41 | 45 | 0.0 | 2.0 | 0.00 | 0.00 | 0.00 | 100 | |
| 20260507210017 | 41 | 40 | 4.0 | 4.0 | 0.00 | 0.00 | 0.00 | 100 | |
| 20260507205524 | 41 | 37 | 4.0 | 7.0 | 0.00 | 0.00 | 0.00 | 100 | |
| 20260507205017 | 41 | 35 | 7.0 | 7.0 | 0.00 | 0.00 | 0.00 | 100 | |
| 20260507204525 | 43 | 33 | 7.0 | 7.0 | 0.00 | 0.00 | 0.00 | 100 | |
| 20260507203018 | 43 | 33 | 4.0 | 4.0 | 0.00 | 0.00 | 0.00 | 100 | |
| 20260507202517 | 43 | 33 | 2.0 | 4.0 | 0.00 | 0.00 | 0.00 | 100 | |
| 20260507202022 | 43 | 33 | 2.0 | 2.0 | 0.00 | 0.00 | 0.00 | 100 | |
| 20260507201017 | 43 | 33 | 4.0 | 4.0 | 0.00 | 0.00 | 0.00 | 100 | |
| 20260507200017 | 43 | 30 | 4.0 | 4.0 | 0.00 | 0.00 | 0.00 | 100 | |
| 20260507195517 | 43 | 23 | 4.0 | 4.0 | 0.00 | 0.00 | 0.00 | 100 | |
| 20260507195018 | 43 | 10 | 2.0 | 2.0 | 0.00 | 0.00 | 0.00 | 100 | |
| 20260507194517 | 43 | 343 | 2.0 | 2.0 | 0.00 | 0.00 | 0.00 | 100 | |
| 20260507194017 | 45 | 339 | 4.0 | 4.0 | 0.00 | 0.00 | 0.00 | 100 | |
| 20260507193019 | 45 | 339 | 2.0 | 4.0 | 0.00 | 0.00 | 0.00 | 100 | |
| 20260507192510 | 45 | 339 | 4.0 | 4.0 | 0.00 | 0.00 | 0.00 | 100 | |
| 20260507192017 | 43 | 339 | 2.0 | 4.0 | 0.00 | 0.00 | 0.00 | 100 | |
| 20260507190517 | 45 | 339 | 4.0 | 4.0 | 0.00 | 0.00 | 0.00 | 100 | |
| 20260507185517 | 45 | 339 | 2.0 | 2.0 | 0.00 | 0.00 | 0.00 | 100 | |
| 20260507183517 | 45 | 339 | 4.0 | 4.0 | 0.00 | 0.00 | 0.00 | 100 | |
| 20260507183017 | 45 | 338 | 4.0 | 7.0 | 0.00 | 0.00 | 0.00 | 100 | |
| 20260507182019 | 45 | 326 | 4.0 | 4.0 | 0.00 | 0.00 | 0.00 | 100 | |
| 20260507181518 | 45 | 327 | 4.0 | 7.0 | 0.00 | 0.00 | 0.00 | 100 | |
| 20260507181016 | 46 | 339 | 4.0 | 7.0 | 0.00 | 0.00 | 0.00 | 100 | |
| 20260507180518 | 46 | 339 | 4.0 | 4.0 | 0.00 | 0.00 | 0.00 | 100 | |
| 20260507180017 | 46 | 334 | 4.0 | 7.0 | 0.00 | 0.00 | 0.00 | 100 | |
| 20260507175518 | 46 | 332 | 4.0 | 7.0 | 0.00 | 0.00 | 0.00 | 100 | |
| 20260507175018 | 46 | 329 | 4.0 | 7.0 | 0.00 | 0.00 | 0.00 | 100 | |
| 20260507174524 | 46 | 313 | 7.0 | 7.0 | 0.00 | 0.00 | 0.00 | 100 | |
| 20260507174017 | 46 | 318 | 7.0 | 9.0 | 0.00 | 0.00 | 0.00 | 100 | |
| 20260507173518 | 45 | 316 | 7.0 | 9.0 | 0.00 | 0.00 | 0.00 | 100 | |
| 20260507173017 | 46 | 317 | 7.0 | 9.0 | 0.00 | 0.00 | 0.00 | 100 | |
| 20260507172517 | 45 | 318 | 9.0 | 11.0 | 0.00 | 0.00 | 0.00 | 100 | |
| 20260507172019 | 45 | 313 | 11.0 | 11.0 | 0.00 | 0.00 | 0.00 | 100 | |
| 20260507171517 | 45 | 317 | 7.0 | 9.0 | 0.00 | 0.00 | 0.00 | 100 | |
| 20260507171018 | 45 | 310 | 7.0 | 11.0 | 0.00 | 0.00 | 0.00 | 100 | |
| 20260507170518 | 45 | 306 | 7.0 | 9.0 | 0.00 | 0.00 | 0.00 | 100 | |
| 20260507170018 | 45 | 307 | 7.0 | 9.0 | 0.00 | 0.00 | 0.00 | 100 | |
| 20260507165518 | 45 | 312 | 7.0 | 9.0 | 0.00 | 0.00 | 0.00 | 100 | |
| 20260507165018 | 45 | 309 | 9.0 | 11.0 | 0.00 | 0.00 | 0.00 | 100 | |
| 20260507164518 | 45 | 297 | 9.0 | 11.0 | 0.00 | 0.00 | 0.00 | 100 | |
| 20260507164019 | 46 | 301 | 9.0 | 11.0 | 0.00 | 0.00 | 0.00 | 100 | |
| 20260507163517 | 46 | 291 | 9.0 | 13.0 | 0.00 | 0.00 | 0.00 | 100 | |
| 20260507163018 | 46 | 303 | 7.0 | 7.0 | 0.00 | 0.00 | 0.00 | 100 | |
| 20260507162519 | 46 | 313 | 4.0 | 7.0 | 0.00 | 0.00 | 0.00 | 100 | |
| 20260507162017 | 48 | 299 | 7.0 | 9.0 | 0.00 | 0.00 | 0.00 | 100 | |
| 20260507161518 | 48 | 290 | 4.0 | 9.0 | 0.00 | 0.00 | 0.00 | 100 | |
| 20260507161018 | 50 | 289 | 7.0 | 9.0 | 0.00 | 0.00 | 0.00 | 100 | |
| 20260507160518 | 48 | 267 | 9.0 | 11.0 | 0.00 | 0.00 | 0.00 | 100 | |
| 20260507160018 | 48 | 266 | 11.0 | 13.0 | 0.00 | 0.00 | 0.00 | 100 | |
| 20260507155524 | 50 | 260 | 9.0 | 13.0 | 0.00 | 0.00 | 0.00 | 100 | |
| 20260507155017 | 50 | 258 | 9.0 | 11.0 | 0.00 | 0.00 | 0.00 | 100 | |
| 20260507154518 | 50 | 258 | 11.0 | 16.0 | 0.00 | 0.00 | 0.00 | 100 | |
| 20260507154024 | 52 | 249 | 7.0 | 11.0 | 0.00 | 0.00 | 0.00 | 100 | |
| 20260507153518 | 52 | 239 | 9.0 | 13.0 | 0.00 | 0.00 | 0.00 | 100 | |
| 20260507153330 | 50 | 243 | 11.0 | 13.0 | 0.00 | 0.00 | 0.00 | 100 | |
| 20260507153022 | 50 | 243 | 11.0 | 13.0 | 0.00 | 0.00 | 0.00 | 100 | |
| 20260507152518 | 50 | 239 | 13.0 | 13.0 | 0.00 | 0.00 | 0.00 | 100 | |
| 20260507152026 | 50 | 250 | 13.0 | 18.0 | 0.00 | 0.00 | 0.00 | 100 | |
| 20260507151518 | 50 | 235 | 9.0 | 13.0 | 0.00 | 0.00 | 0.00 | 100 | |
| 20260507151017 | 50 | 233 | 11.0 | 16.0 | 0.00 | 0.00 | 0.00 | 100 | |
| 20260507150518 | 50 | 244 | 7.0 | 9.0 | 0.00 | 0.00 | 0.00 | 100 | |
| 20260507150018 | 50 | 251 | 7.0 | 9.0 | 0.00 | 0.00 | 0.00 | 100 | |
| 20260507145517 | 50 | 244 | 11.0 | 13.0 | 0.00 | 0.00 | 0.00 | 100 | |
| 20260507145024 | 50 | 250 | 11.0 | 16.0 | 0.00 | 0.00 | 0.00 | 100 | |
| 20260507144518 | 50 | 249 | 11.0 | 13.0 | 0.00 | 0.00 | 0.00 | 100 | |
| 20260507144018 | 50 | 253 | 9.0 | 9.0 | 0.00 | 0.00 | 0.00 | 100 | |
| 20260507143518 | 50 | 248 | 9.0 | 11.0 | 0.00 | 0.00 | 0.00 | 100 | |
| 20260507143017 | 50 | 248 | 4.0 | 7.0 | 0.00 | 0.00 | 0.00 | 100 | |
| 20260507142518 | 50 | 252 | 9.0 | 11.0 | 0.00 | 0.00 | 0.00 | 100 | |
| 20260507142021 | 48 | 263 | 9.0 | 11.0 | 0.00 | 0.00 | 0.00 | 100 | |
| 20260507141518 | 48 | 258 | 9.0 | 11.0 | 0.00 | 0.00 | 0.00 | 100 | |
| 20260507141025 | 50 | 259 | 9.0 | 13.0 | 0.00 | 0.00 | 0.00 | 100 | |
| 20260507140518 | 50 | 245 | 9.0 | 11.0 | 0.00 | 0.00 | 0.00 | 100 | |
| 20260507140017 | 48 | 263 | 11.0 | 13.0 | 0.00 | 0.00 | 0.00 | 100 | |
| 20260507135518 | 48 | 258 | 13.0 | 16.0 | 0.00 | 0.00 | 0.00 | 100 | |
| 20260507135017 | 48 | 256 | 13.0 | 16.0 | 0.00 | 0.00 | 0.00 | 100 | |
| 20260507134518 | 48 | 245 | 16.0 | 20.0 | 0.00 | 0.00 | 0.00 | 100 | |
| 20260507134017 | 48 | 264 | 11.0 | 16.0 | 0.00 | 0.00 | 0.00 | 100 | |
| 20260507133517 | 48 | 252 | 13.0 | 13.0 | 0.00 | 0.00 | 0.00 | 100 | |
| 20260507133018 | 48 | 246 | 9.0 | 13.0 | 0.00 | 0.00 | 0.00 | 100 | |
| 20260507132517 | 48 | 242 | 7.0 | 9.0 | 0.00 | 0.00 | 0.00 | 100 | |
| 20260507132017 | 48 | 240 | 9.0 | 13.0 | 0.00 | 0.00 | 0.00 | 100 | |
| 20260507131518 | 48 | 246 | 11.0 | 16.0 | 0.00 | 0.00 | 0.00 | 100 | |
| 20260507131018 | 48 | 244 | 9.0 | 13.0 | 0.00 | 0.00 | 0.00 | 100 | |
| 20260507130517 | 48 | 236 | 9.0 | 13.0 | 0.00 | 0.00 | 0.00 | 100 | |
| 20260507130018 | 48 | 234 | 9.0 | 13.0 | 0.00 | 0.00 | 0.00 | 100 | |
| 20260507125517 | 48 | 272 | 13.0 | 18.0 | 0.00 | 0.00 | 0.00 | 100 | |
| 20260507125017 | 48 | 247 | 16.0 | 18.0 | 0.00 | 0.00 | 0.00 | 100 | |
| 20260507124517 | 50 | 243 | 13.0 | 18.0 | 0.00 | 0.00 | 0.00 | 100 | |
| 20260507124017 | 48 | 239 | 13.0 | 18.0 | 0.00 | 0.00 | 0.00 | 100 | |
| 20260507123517 | 48 | 238 | 11.0 | 13.0 | 0.00 | 0.00 | 0.00 | 100 | |
| 20260507123025 | 48 | 245 | 11.0 | 18.0 | 0.00 | 0.00 | 0.00 | 100 | |
| 20260507122517 | 48 | 260 | 13.0 | 18.0 | 0.00 | 0.00 | 0.00 | 100 | |
| 20260507122019 | 48 | 256 | 13.0 | 18.0 | 0.00 | 0.00 | 0.00 | 100 | |
| 20260507121518 | 48 | 258 | 13.0 | 18.0 | 0.00 | 0.00 | 0.00 | 100 | |
| 20260507121018 | 48 | 259 | 13.0 | 18.0 | 0.00 | 0.00 | 0.00 | 100 | |
| 20260507120516 | 48 | 247 | 9.0 | 13.0 | 0.00 | 0.00 | 0.00 | 100 | |
| 20260507120017 | 48 | 253 | 11.0 | 16.0 | 0.00 | 0.00 | 0.00 | 100 | |
| 20260507115523 | 48 | 268 | 9.0 | 16.0 | 0.00 | 0.00 | 0.00 | 100 | |
| 20260507115018 | 48 | 258 | 11.0 | 13.0 | 0.00 | 0.00 | 0.00 | 100 | |
| 20260507114517 | 48 | 268 | 11.0 | 16.0 | 0.00 | 0.00 | 0.00 | 100 | |
| 20260507114017 | 46 | 275 | 11.0 | 18.0 | 0.00 | 0.00 | 0.00 | 100 | |
| 20260507113517 | 46 | 281 | 9.0 | 13.0 | 0.00 | 0.00 | 0.00 | 100 | |
| 20260507113018 | 46 | 269 | 9.0 | 13.0 | 0.00 | 0.00 | 0.00 | 100 | |
| 20260507112518 | 48 | 272 | 11.0 | 16.0 | 0.00 | 0.00 | 0.00 | 100 | |
| 20260507112020 | 48 | 239 | 13.0 | 16.0 | 0.00 | 0.00 | 0.00 | 100 | |
| 20260507111518 | 50 | 230 | 7.0 | 13.0 | 0.00 | 0.00 | 0.00 | 100 | |
| 20260507111018 | 50 | 224 | 7.0 | 9.0 | 0.00 | 0.00 | 0.00 | 100 | |
| 20260507110517 | 50 | 214 | 9.0 | 11.0 | 0.00 | 0.00 | 0.00 | 100 | |
| 20260507110018 | 50 | 220 | 11.0 | 16.0 | 0.00 | 0.00 | 0.00 | 100 | |
| 20260507105525 | 48 | 219 | 11.0 | 13.0 | 0.00 | 0.00 | 0.00 | 100 | |
| 20260507105017 | 48 | 244 | 9.0 | 11.0 | 0.00 | 0.00 | 0.00 | 100 | |
| 20260507104517 | 48 | 233 | 9.0 | 16.0 | 0.00 | 0.00 | 0.00 | 100 | |
| 20260507104017 | 48 | 232 | 9.0 | 11.0 | 0.00 | 0.00 | 0.00 | 100 | |
| 20260507103518 | 48 | 237 | 9.0 | 13.0 | 0.00 | 0.00 | 0.00 | 100 | |
| 20260507103017 | 46 | 240 | 9.0 | 11.0 | 0.00 | 0.00 | 0.00 | 100 | |
| 20260507102518 | 46 | 228 | 9.0 | 11.0 | 0.00 | 0.00 | 0.00 | 100 | |
| 20260507102024 | 46 | 243 | 7.0 | 9.0 | 0.00 | 0.00 | 0.00 | 100 | |
| 20260507101518 | 46 | 249 | 11.0 | 13.0 | 0.00 | 0.00 | 0.00 | 100 | |
| 20260507101018 | 46 | 229 | 9.0 | 16.0 | 0.00 | 0.00 | 0.00 | 100 | |
| 20260507100517 | 46 | 252 | 7.0 | 9.0 | 0.00 | 0.00 | 0.00 | 100 | |
| 20260507100018 | 46 | 240 | 9.0 | 13.0 | 0.00 | 0.00 | 0.00 | 100 | |
| 20260507095517 | 46 | 254 | 11.0 | 16.0 | 0.00 | 0.00 | 0.00 | 100 | |
| 20260507095018 | 46 | 256 | 11.0 | 16.0 | 0.00 | 0.00 | 0.00 | 100 | |
| 20260507094512 | 46 | 256 | 11.0 | 13.0 | 0.00 | 0.00 | 0.00 | 100 | |
| 20260507094018 | 46 | 276 | 7.0 | 9.0 | 0.00 | 0.00 | 0.00 | 100 | |
| 20260507093517 | 46 | 247 | 9.0 | 11.0 | 0.00 | 0.00 | 0.00 | 100 | |
| 20260507093018 | 46 | 245 | 7.0 | 9.0 | 0.00 | 0.00 | 0.00 | 100 | |
| 20260507092518 | 46 | 237 | 11.0 | 13.0 | 0.00 | 0.00 | 0.00 | 100 | |
| 20260507092020 | 46 | 235 | 7.0 | 11.0 | 0.00 | 0.00 | 0.00 | 100 | |
| 20260507091517 | 46 | 232 | 9.0 | 11.0 | 0.00 | 0.00 | 0.00 | 100 | |
| 20260507091017 | 46 | 248 | 9.0 | 11.0 | 0.00 | 0.00 | 0.00 | 100 | |
| 20260507090518 | 46 | 244 | 11.0 | 13.0 | 0.00 | 0.00 | 0.00 | 100 | |
| 20260507090017 | 46 | 250 | 9.0 | 11.0 | 0.00 | 0.00 | 0.00 | 100 | |
| 20260507085517 | 46 | 250 | 13.0 | 20.0 | 0.00 | 0.00 | 0.00 | 100 | |
| 20260507085017 | 46 | 252 | 16.0 | 20.0 | 0.00 | 0.00 | 0.00 | 100 | |
| 20260507084517 | 46 | 249 | 13.0 | 16.0 | 0.00 | 0.00 | 0.00 | 100 | |
| 20260507084018 | 46 | 251 | 11.0 | 16.0 | 0.00 | 0.00 | 0.00 | 100 | |
| 20260507083518 | 46 | 251 | 11.0 | 13.0 | 0.00 | 0.00 | 0.00 | 100 | |
| 20260507083017 | 46 | 246 | 11.0 | 16.0 | 0.00 | 0.00 | 0.00 | 100 | |
| 20260507082518 | 46 | 251 | 13.0 | 16.0 | 0.00 | 0.00 | 0.00 | 100 | |
| 20260507082019 | 45 | 249 | 13.0 | 18.0 | 0.00 | 0.00 | 0.00 | 100 | |
| 20260507081518 | 45 | 256 | 11.0 | 18.0 | 0.00 | 0.00 | 0.00 | 100 | |
| 20260507081018 | 46 | 248 | 11.0 | 16.0 | 0.00 | 0.00 | 0.00 | 100 | |
| 20260507080517 | 46 | 248 | 11.0 | 13.0 | 0.00 | 0.00 | 0.00 | 100 | |
| 20260507080018 | 46 | 255 | 11.0 | 13.0 | 0.00 | 0.00 | 0.00 | 100 | |
| 20260507075517 | 46 | 254 | 13.0 | 20.0 | 0.00 | 0.00 | 0.00 | 100 | |
| 20260507075017 | 46 | 252 | 13.0 | 16.0 | 0.00 | 0.00 | 0.00 | 100 | |
| 20260507074517 | 46 | 243 | 13.0 | 18.0 | 0.00 | 0.00 | 0.00 | 100 | |
| 20260507074018 | 46 | 239 | 11.0 | 16.0 | 0.00 | 0.00 | 0.00 | 100 | |
| 20260507073517 | 45 | 246 | 13.0 | 16.0 | 0.00 | 0.00 | 0.00 | 100 | |
| 20260507073017 | 45 | 237 | 11.0 | 16.0 | 0.00 | 0.00 | 0.00 | 100 | |
| 20260507072517 | 45 | 238 | 11.0 | 16.0 | 0.00 | 0.00 | 0.00 | 100 | |
| 20260507072020 | 45 | 236 | 13.0 | 16.0 | 0.00 | 0.00 | 0.00 | 100 | |
| 20260507071510 | 46 | 247 | 13.0 | 16.0 | 0.00 | 0.00 | 0.00 | 100 | |
| 20260507071016 | 46 | 217 | 13.0 | 16.0 | 0.00 | 0.00 | 0.00 | 100 | |
| 20260507070524 | 46 | 233 | 13.0 | 18.0 | 0.00 | 0.00 | 0.00 | 100 | |
| 20260507070017 | 46 | 233 | 11.0 | 20.0 | 0.00 | 0.00 | 0.00 | 100 | |
| 20260507065518 | 46 | 232 | 9.0 | 13.0 | 0.00 | 0.00 | 0.00 | 100 | |
| 20260507065018 | 46 | 234 | 9.0 | 13.0 | 0.00 | 0.00 | 0.00 | 100 | |
| 20260507064525 | 46 | 208 | 7.0 | 11.0 | 0.00 | 0.00 | 0.00 | 100 | |
| 20260507064017 | 46 | 245 | 11.0 | 16.0 | 0.00 | 0.00 | 0.00 | 100 | |
| 20260507063522 | 46 | 237 | 11.0 | 11.0 | 0.00 | 0.00 | 0.00 | 100 | |
| 20260507063017 | 46 | 238 | 11.0 | 13.0 | 0.00 | 0.00 | 0.00 | 100 | |
| 20260507062517 | 46 | 242 | 9.0 | 11.0 | 0.00 | 0.00 | 0.00 | 100 | |
| 20260507062019 | 46 | 246 | 11.0 | 13.0 | 0.00 | 0.00 | 0.00 | 100 | |
| 20260507061525 | 46 | 247 | 11.0 | 13.0 | 0.00 | 0.00 | 0.00 | 100 | |
| 20260507061018 | 46 | 245 | 11.0 | 13.0 | 0.00 | 0.00 | 0.00 | 100 | |
| 20260507060517 | 46 | 246 | 11.0 | 13.0 | 0.00 | 0.00 | 0.00 | 100 | |
| 20260507060018 | 46 | 247 | 13.0 | 16.0 | 0.00 | 0.00 | 0.00 | 100 | |
| 20260507055523 | 46 | 245 | 11.0 | 13.0 | 0.00 | 0.00 | 0.00 | 100 | |
| 20260507055018 | 46 | 248 | 11.0 | 13.0 | 0.00 | 0.00 | 0.00 | 100 | |
| 20260507054517 | 46 | 250 | 11.0 | 16.0 | 0.00 | 0.00 | 0.00 | 100 | |
| 20260507054017 | 46 | 247 | 11.0 | 13.0 | 0.00 | 0.00 | 0.00 | 100 | |
| 20260507053518 | 46 | 244 | 13.0 | 16.0 | 0.00 | 0.00 | 0.00 | 100 | |
| 20260507053017 | 46 | 246 | 9.0 | 13.0 | 0.00 | 0.00 | 0.00 | 100 | |
| 20260507052518 | 46 | 257 | 11.0 | 13.0 | 0.00 | 0.00 | 0.00 | 100 | |
| 20260507052019 | 46 | 248 | 16.0 | 18.0 | 0.00 | 0.00 | 0.00 | 100 | |
| 20260507051518 | 46 | 249 | 11.0 | 13.0 | 0.00 | 0.00 | 0.00 | 100 | |
| 20260507051017 | 46 | 242 | 11.0 | 16.0 | 0.00 | 0.00 | 0.00 | 100 | |
| 20260507050517 | 46 | 237 | 11.0 | 16.0 | 0.00 | 0.00 | 0.00 | 100 | |
| 20260507050018 | 46 | 247 | 11.0 | 16.0 | 0.00 | 0.00 | 0.00 | 100 | |
| 20260507045517 | 46 | 245 | 11.0 | 13.0 | 0.00 | 0.00 | 0.00 | 100 | |
| 20260507045018 | 46 | 248 | 9.0 | 11.0 | 0.00 | 0.00 | 0.00 | 100 | |
| 20260507044525 | 46 | 245 | 9.0 | 13.0 | 0.00 | 0.00 | 0.00 | 100 | |
| 20260507044024 | 46 | 247 | 9.0 | 11.0 | 0.00 | 0.00 | 0.00 | 100 | |
| 20260507043518 | 46 | 257 | 11.0 | 11.0 | 0.00 | 0.00 | 0.00 | 100 | |
| 20260507043017 | 46 | 253 | 11.0 | 13.0 | 0.00 | 0.00 | 0.00 | 100 | |
| 20260507042517 | 46 | 247 | 11.0 | 13.0 | 0.00 | 0.00 | 0.00 | 100 | |
| 20260507042017 | 46 | 265 | 7.0 | 11.0 | 0.00 | 0.00 | 0.00 | 100 | |
| 20260507041523 | 46 | 250 | 9.0 | 16.0 | 0.00 | 0.00 | 0.00 | 100 | |
| 20260507041017 | 46 | 250 | 9.0 | 9.0 | 0.00 | 0.00 | 0.00 | 100 | |
| 20260507040518 | 46 | 246 | 9.0 | 11.0 | 0.00 | 0.00 | 0.00 | 100 | |
| 20260507040018 | 46 | 246 | 9.0 | 9.0 | 0.00 | 0.00 | 0.00 | 100 | |
| 20260507035517 | 46 | 242 | 7.0 | 9.0 | 0.00 | 0.00 | 0.00 | 100 | |
| 20260507035018 | 46 | 232 | 9.0 | 11.0 | 0.00 | 0.00 | 0.00 | 100 | |
| 20260507034517 | 46 | 229 | 7.0 | 9.0 | 0.00 | 0.00 | 0.00 | 100 | |
| 20260507034017 | 46 | 228 | 7.0 | 9.0 | 0.00 | 0.00 | 0.00 | 100 | |
| 20260507033518 | 46 | 226 | 7.0 | 11.0 | 0.00 | 0.00 | 0.00 | 100 | |
| 20260507033017 | 46 | 219 | 4.0 | 7.0 | 0.00 | 0.00 | 0.00 | 100 | |
| 20260507032517 | 46 | 207 | 7.0 | 11.0 | 0.00 | 0.00 | 0.00 | 100 | |
| 20260507032020 | 46 | 222 | 7.0 | 9.0 | 0.00 | 0.00 | 0.00 | 100 | |
| 20260507031517 | 46 | 216 | 7.0 | 9.0 | 0.00 | 0.00 | 0.00 | 100 | |
| 20260507031015 | 46 | 217 | 7.0 | 9.0 | 0.00 | 0.00 | 0.00 | 100 | |
| 20260507030517 | 46 | 201 | 7.0 | 11.0 | 0.00 | 0.00 | 0.00 | 100 | |
| 20260507030017 | 46 | 223 | 7.0 | 11.0 | 0.00 | 0.00 | 0.00 | 100 | |
| 20260507025517 | 46 | 205 | 7.0 | 9.0 | 0.00 | 0.00 | 0.00 | 100 | |
| 20260507025017 | 46 | 228 | 9.0 | 11.0 | 0.00 | 0.00 | 0.00 | 100 | |
| 20260507024518 | 46 | 220 | 7.0 | 9.0 | 0.00 | 0.00 | 0.00 | 100 | |
| 20260507024017 | 46 | 217 | 7.0 | 11.0 | 0.00 | 0.00 | 0.00 | 100 | |
| 20260507023517 | 46 | 214 | 7.0 | 9.0 | 0.00 | 0.00 | 0.00 | 100 | |
| 20260507023018 | 46 | 211 | 9.0 | 11.0 | 0.00 | 0.00 | 0.00 | 100 | |
| 20260507022517 | 46 | 244 | 9.0 | 11.0 | 0.00 | 0.00 | 0.00 | 100 | |
| 20260507022018 | 46 | 224 | 7.0 | 9.0 | 0.00 | 0.00 | 0.00 | 100 | |
| 20260507021518 | 46 | 228 | 11.0 | 13.0 | 0.00 | 0.00 | 0.00 | 100 | |
| 20260507021017 | 46 | 240 | 9.0 | 11.0 | 0.00 | 0.00 | 0.00 | 100 | |
| 20260507020525 | 46 | 238 | 9.0 | 11.0 | 0.00 | 0.00 | 0.00 | 100 | |
| 20260507020017 | 46 | 246 | 7.0 | 9.0 | 0.00 | 0.00 | 0.00 | 100 | |
| 20260507015517 | 46 | 237 | 9.0 | 11.0 | 0.00 | 0.00 | 0.00 | 100 | |
| 20260507015017 | 46 | 232 | 11.0 | 13.0 | 0.00 | 0.00 | 0.00 | 100 | |
| 20260507014517 | 46 | 230 | 11.0 | 13.0 | 0.00 | 0.00 | 0.00 | 100 | |
| 20260507014018 | 46 | 236 | 11.0 | 13.0 | 0.00 | 0.00 | 0.00 | 100 | |
| 20260507013517 | 46 | 234 | 11.0 | 13.0 | 0.00 | 0.00 | 0.00 | 100 | |
| 20260507013019 | 46 | 221 | 7.0 | 9.0 | 0.00 | 0.00 | 0.00 | 100 | |
| 20260507012518 | 46 | 225 | 7.0 | 9.0 | 0.00 | 0.00 | 0.00 | 100 | |
| 20260507012011 | 46 | 240 | 9.0 | 11.0 | 0.00 | 0.00 | 0.00 | 100 | |
| 20260507011517 | 46 | 249 | 9.0 | 9.0 | 0.00 | 0.00 | 0.00 | 100 | |
| 20260507011018 | 46 | 264 | 9.0 | 11.0 | 0.00 | 0.00 | 0.00 | 100 | |
| 20260507010018 | 46 | 267 | 9.0 | 11.0 | 0.00 | 0.00 | 0.00 | 100 | |
| 20260507005516 | 46 | 267 | 11.0 | 13.0 | 0.00 | 0.00 | 0.00 | 100 | |
| 20260507005017 | 46 | 269 | 9.0 | 11.0 | 0.00 | 0.00 | 0.00 | 100 | |
| 20260507004511 | 46 | 281 | 11.0 | 13.0 | 0.00 | 0.00 | 0.00 | 100 | |
| 20260507004017 | 48 | 266 | 9.0 | 16.0 | 0.00 | 0.00 | 0.00 | 100 | |
| 20260507003517 | 48 | 271 | 13.0 | 18.0 | 0.00 | 0.00 | 0.00 | 100 | |
| 20260507003017 | 48 | 270 | 13.0 | 16.0 | 0.00 | 0.00 | 0.00 | 100 | |
| 20260507002518 | 48 | 271 | 11.0 | 13.0 | 0.00 | 0.00 | 0.00 | 100 | |
| 20260507002019 | 48 | 271 | 9.0 | 11.0 | 0.00 | 0.00 | 0.00 | 100 | |
| 20260507001519 | 48 | 275 | 11.0 | 13.0 | 0.00 | 0.00 | 0.00 | 100 | |
| 20260507001017 | 48 | 265 | 9.0 | 11.0 | 0.00 | 0.00 | 0.00 | 100 | |
| 20260507000518 | 46 | 263 | 7.0 | 9.0 | 0.00 | 0.00 | 0.00 | 100 | |
| 20260507000018 | 46 | 244 | 4.0 | 4.0 | 0.00 | 0.00 | 0.00 | 100 | |
| 20260506235518 | 46 | 88 | 0.0 | 2.0 | 0.00 | 0.00 | 0.00 | 100 | |
| 20260506235017 | 46 | 89 | 4.0 | 7.0 | 0.00 | 0.00 | 0.00 | 100 | |
| 20260506234517 | 46 | 91 | 7.0 | 7.0 | 0.00 | 0.00 | 0.00 | 100 | |
| 20260506234018 | 46 | 79 | 7.0 | 7.0 | 0.00 | 0.00 | 0.00 | 100 | |
| 20260506233518 | 46 | 71 | 9.0 | 11.0 | 0.00 | 0.00 | 0.00 | 100 | |
| 20260506233017 | 46 | 77 | 9.0 | 9.0 | 0.00 | 0.00 | 0.00 | 100 | |
| 20260506232521 | 48 | 61 | 9.0 | 9.0 | 0.00 | 0.00 | 0.00 | 100 | |
| 20260506232019 | 46 | 67 | 9.0 | 9.0 | 0.00 | 0.00 | 0.00 | 100 | |
| 20260506231517 | 48 | 83 | 13.0 | 16.0 | 0.00 | 0.00 | 0.00 | 100 | |
| 20260506231017 | 48 | 65 | 16.0 | 18.0 | 0.00 | 0.00 | 0.00 | 100 | |
| 20260506230518 | 46 | 90 | 11.0 | 13.0 | 0.00 | 0.00 | 0.00 | 100 | |
| 20260506230018 | 48 | 139 | 9.0 | 11.0 | 0.00 | 0.00 | 0.00 | 100 | |
| 20260506225517 | 48 | 181 | 9.0 | 9.0 | 0.00 | 0.00 | 0.00 | 100 | |
| 20260506225018 | 48 | 193 | 11.0 | 13.0 | 0.00 | 0.00 | 0.00 | 100 | |
| 20260506224517 | 48 | 208 | 7.0 | 9.0 | 0.00 | 0.00 | 0.00 | 100 | |
| 20260506224018 | 48 | 216 | 9.0 | 11.0 | 0.00 | 0.00 | 0.00 | 100 | |
| 20260506223518 | 48 | 227 | 7.0 | 11.0 | 0.00 | 0.00 | 0.00 | 100 | |
| 20260506223017 | 48 | 232 | 11.0 | 16.0 | 0.00 | 0.00 | 0.00 | 100 | |
| 20260506222520 | 48 | 224 | 7.0 | 9.0 | 0.00 | 0.00 | 0.00 | 100 | |
| 20260506222023 | 48 | 237 | 11.0 | 16.0 | 0.00 | 0.00 | 0.00 | 100 | |
| 20260506221517 | 48 | 240 | 11.0 | 13.0 | 0.00 | 0.00 | 0.00 | 100 | |
| 20260506221017 | 48 | 229 | 9.0 | 16.0 | 0.00 | 0.00 | 0.00 | 100 | |
| 20260506220518 | 48 | 234 | 7.0 | 9.0 | 0.00 | 0.00 | 0.00 | 100 | |
| 20260506220018 | 48 | 232 | 7.0 | 9.0 | 0.00 | 0.00 | 0.00 | 100 | |
| 20260506215517 | 48 | 207 | 7.0 | 11.0 | 0.00 | 0.00 | 0.00 | 100 | |
| 20260506215017 | 48 | 160 | 7.0 | 7.0 | 0.00 | 0.00 | 0.00 | 100 |